createdAt,value
2019-03-27T00:02:31.571Z,98130.67
2019-03-27T00:07:26.179Z,98126.25
2019-03-27T00:12:20.761Z,98125.14
2019-03-27T00:17:15.369Z,98118.13
2019-03-27T00:22:10.054Z,98117.00
2019-03-27T00:27:04.656Z,98111.30
2019-03-27T00:31:59.266Z,98119.75
2019-03-27T00:36:53.854Z,98122.70
2019-03-27T00:41:48.470Z,98124.00
2019-03-27T00:46:43.065Z,98124.30
2019-03-27T00:51:37.738Z,98117.16
2019-03-27T00:56:32.319Z,98119.11
2019-03-27T01:01:26.910Z,98120.26
2019-03-27T01:06:21.570Z,98125.79
2019-03-27T01:11:16.182Z,98125.45
2019-03-27T01:16:10.912Z,98119.92
2019-03-27T01:21:05.751Z,98107.54
2019-03-27T01:26:00.352Z,98105.29
2019-03-27T01:30:54.981Z,98110.63
2019-03-27T01:35:49.587Z,98107.54
2019-03-27T01:40:44.450Z,98111.30
2019-03-27T01:45:52.207Z,98113.07
2019-03-27T01:50:35.399Z,98117.77
2019-03-27T01:55:30.014Z,98119.52
2019-03-27T02:00:24.691Z,98122.42
2019-03-27T02:05:19.465Z,98120.77
2019-03-27T02:10:14.752Z,98126.23
2019-03-27T02:15:10.870Z,98112.22
2019-03-27T02:20:08.082Z,98114.48
2019-03-27T02:25:02.683Z,98120.61
2019-03-27T02:29:57.274Z,98115.73
2019-03-27T02:34:51.891Z,98103.48
2019-03-27T02:39:46.504Z,98108.00
2019-03-27T02:44:41.109Z,98108.45
2019-03-27T02:49:35.757Z,98107.10
2019-03-27T02:54:30.336Z,98102.91
2019-03-27T02:59:24.972Z,98103.70
2019-03-27T03:04:19.709Z,98106.74
2019-03-27T03:09:14.344Z,98104.89
2019-03-27T03:14:08.974Z,98106.34
2019-03-27T03:19:03.577Z,98104.28
2019-03-27T03:23:58.178Z,98107.70
2019-03-27T03:28:52.783Z,98105.50
2019-03-27T03:33:47.469Z,98109.27
2019-03-27T03:38:42.054Z,98110.56
2019-03-27T03:43:36.656Z,98113.97
2019-03-27T03:48:31.252Z,98111.47
2019-03-27T03:53:28.927Z,98109.99
2019-03-27T03:58:26.532Z,98123.65
2019-03-27T04:03:24.661Z,98117.64
2019-03-27T04:08:19.266Z,98121.96
2019-03-27T04:13:13.872Z,98116.40
2019-03-27T04:18:08.553Z,98110.28
2019-03-27T04:23:03.154Z,98117.71
2019-03-27T04:27:57.828Z,98116.41
2019-03-27T04:32:52.432Z,98114.55
2019-03-27T04:37:47.056Z,98121.29
2019-03-27T04:42:41.702Z,98126.55
2019-03-27T04:47:36.310Z,98125.31
2019-03-27T04:52:30.922Z,98126.88
2019-03-27T04:57:25.592Z,98132.41
2019-03-27T05:02:20.277Z,98132.22
2019-03-27T05:07:14.886Z,98128.61
2019-03-27T05:12:09.464Z,98126.55
2019-03-27T05:17:04.088Z,98127.00
2019-03-27T05:21:58.682Z,98127.91
2019-03-27T05:26:53.329Z,98127.04
2019-03-27T05:31:47.918Z,98130.77
2019-03-27T05:36:42.624Z,98116.47
2019-03-27T05:41:37.228Z,98127.81
2019-03-27T05:46:31.867Z,98137.34
2019-03-27T05:51:26.466Z,98141.29
2019-03-27T05:56:21.078Z,98141.20
2019-03-27T06:01:15.658Z,98135.03
2019-03-27T06:06:10.266Z,98141.53
2019-03-27T06:11:04.846Z,98132.61
2019-03-27T06:15:59.446Z,98138.84
2019-03-27T06:20:54.023Z,98133.41
2019-03-27T06:25:48.639Z,98131.33
2019-03-27T06:30:43.297Z,98139.83
2019-03-27T06:35:37.901Z,98130.86
2019-03-27T06:40:32.531Z,98128.09
2019-03-27T06:45:27.151Z,98122.22
2019-03-27T06:50:22.625Z,98129.92
2019-03-27T06:55:17.272Z,98133.94
2019-03-27T07:00:12.869Z,98139.67
2019-03-27T07:05:08.182Z,98136.26
2019-03-27T07:10:04.208Z,98134.35
2019-03-27T07:14:59.355Z,98142.20
2019-03-27T07:19:54.204Z,98146.58
2019-03-27T07:24:48.831Z,98140.98
2019-03-27T07:29:44.034Z,98151.77
2019-03-27T07:34:38.629Z,98152.06
2019-03-27T07:39:33.677Z,98144.96
2019-03-27T07:44:28.902Z,98151.09
2019-03-27T07:49:23.538Z,98154.28
2019-03-27T07:54:18.269Z,98150.22
2019-03-27T07:59:13.050Z,98158.03
2019-03-27T08:04:07.672Z,98156.62
2019-03-27T08:09:02.261Z,98152.27
2019-03-27T08:13:57.282Z,98153.20
2019-03-27T08:19:06.842Z,98150.16
2019-03-27T08:23:51.901Z,98151.65
2019-03-27T08:28:46.488Z,98159.84
2019-03-27T08:33:41.106Z,98159.95
2019-03-27T08:38:36.999Z,98139.86
2019-03-27T08:43:31.776Z,98150.15
2019-03-27T08:48:26.404Z,98153.74
2019-03-27T08:53:21.078Z,98150.99
2019-03-27T08:58:15.726Z,98156.22
2019-03-27T09:03:10.322Z,98160.67
2019-03-27T09:08:05.125Z,98160.69
2019-03-27T09:13:00.414Z,98151.67
2019-03-27T09:17:56.715Z,98153.55
2019-03-27T09:22:53.484Z,98150.45
2019-03-27T09:27:49.878Z,98159.05
2019-03-27T09:32:44.959Z,98165.60
2019-03-27T09:37:39.638Z,98154.94
2019-03-27T09:42:34.376Z,98166.37
2019-03-27T09:47:28.967Z,98158.33
2019-03-27T09:52:23.609Z,98160.91
2019-03-27T09:57:18.193Z,98165.19
2019-03-27T10:02:19.709Z,98159.88
2019-03-27T10:07:14.631Z,98152.59
2019-03-27T10:12:09.266Z,98159.75
2019-03-27T10:17:04.445Z,98155.22
2019-03-27T10:21:59.092Z,98160.52
2019-03-27T10:26:53.709Z,98163.36
2019-03-27T10:31:48.485Z,98167.67
2019-03-27T10:36:43.341Z,98162.02
2019-03-27T10:41:37.988Z,98162.89
2019-03-27T10:46:32.756Z,98156.13
2019-03-27T10:51:27.375Z,98151.86
2019-03-27T10:56:22.007Z,98154.70
2019-03-27T11:01:17.076Z,98150.83
2019-03-27T11:06:11.706Z,98150.88
2019-03-27T11:11:07.241Z,98158.52
2019-03-27T11:16:02.826Z,98167.88
2019-03-27T11:20:57.493Z,98154.17
2019-03-27T11:25:52.450Z,98147.34
2019-03-27T11:30:48.559Z,98155.09
2019-03-27T11:35:43.333Z,98163.25
2019-03-27T11:40:38.093Z,98143.57
2019-03-27T11:45:32.804Z,98139.66
2019-03-27T11:50:28.250Z,98128.45
2019-03-27T11:55:22.846Z,98146.64
2019-03-27T12:00:20.159Z,98136.92
2019-03-27T12:05:14.891Z,98139.34
2019-03-27T12:10:10.306Z,98141.63
2019-03-27T12:15:09.052Z,98143.54
2019-03-27T12:20:05.160Z,98143.17
2019-03-27T12:24:59.846Z,98139.20
2019-03-27T12:29:59.053Z,98150.23
2019-03-27T12:34:53.710Z,98139.69
2019-03-27T12:39:48.350Z,98139.75
2019-03-27T12:44:42.936Z,98135.58
2019-03-27T12:49:37.672Z,98142.27
2019-03-27T12:54:32.315Z,98131.44
2019-03-27T12:59:27.009Z,98133.23
2019-03-27T13:04:21.902Z,98127.75
2019-03-27T13:09:16.571Z,98128.82
2019-03-27T13:14:11.172Z,98143.08
2019-03-27T13:19:06.087Z,98130.34
2019-03-27T13:24:00.703Z,98129.06
2019-03-27T13:28:55.714Z,98134.52
2019-03-27T13:33:50.693Z,98121.41
2019-03-27T13:38:45.477Z,98124.11
2019-03-27T13:43:40.499Z,98125.66
2019-03-27T13:48:35.250Z,98100.72
2019-03-27T13:53:30.128Z,98109.16
2019-03-27T13:58:24.770Z,98108.39
2019-03-27T14:03:20.896Z,98103.37
2019-03-27T14:08:15.500Z,98117.58
2019-03-27T14:13:10.119Z,98118.15
2019-03-27T14:18:04.910Z,98105.94
2019-03-27T14:22:59.512Z,98105.08
2019-03-27T14:27:54.598Z,98121.19
2019-03-27T14:32:49.221Z,98111.69
2019-03-27T14:37:43.924Z,98113.41
2019-03-27T14:42:39.504Z,98104.31
2019-03-27T14:47:34.237Z,98109.59
2019-03-27T14:52:28.885Z,98103.45
2019-03-27T14:57:23.507Z,98100.92
2019-03-27T15:02:18.110Z,98095.78
2019-03-27T15:07:12.691Z,98111.95
2019-03-27T15:12:07.288Z,98095.30
2019-03-27T15:17:02.770Z,98102.72
2019-03-27T15:21:57.352Z,98095.69
2019-03-27T15:26:51.962Z,98103.86
2019-03-27T15:31:46.574Z,98099.94
2019-03-27T15:36:41.207Z,98092.28
2019-03-27T15:41:35.838Z,98088.23
2019-03-27T15:46:30.774Z,98084.69
2019-03-27T15:51:25.434Z,98090.65
2019-03-27T15:56:20.383Z,98083.20
2019-03-27T16:01:15.185Z,98088.83
2019-03-27T16:06:10.115Z,98090.48
2019-03-27T16:11:04.820Z,98096.04
2019-03-27T16:15:59.471Z,98097.69
2019-03-27T16:20:54.394Z,98097.55
2019-03-27T16:25:48.966Z,98096.25
2019-03-27T16:30:43.581Z,98108.38
2019-03-27T16:35:38.412Z,98108.09
2019-03-27T16:40:46.854Z,98111.36
2019-03-27T16:45:41.680Z,98108.38
2019-03-27T16:50:36.285Z,98116.33
2019-03-27T16:55:30.909Z,98122.29
2019-03-27T17:00:25.609Z,98121.41
2019-03-27T17:05:20.301Z,98119.63
2019-03-27T17:10:15.288Z,98127.92
2019-03-27T17:15:10.149Z,98126.45
2019-03-27T17:20:10.471Z,98138.59
2019-03-27T17:25:07.964Z,98163.48
2019-03-27T17:30:02.638Z,98166.53
2019-03-27T17:34:57.231Z,98166.63
2019-03-27T17:39:51.840Z,98179.52
2019-03-27T17:44:46.439Z,98190.83
2019-03-27T17:49:41.035Z,98201.16
2019-03-27T17:54:35.629Z,98207.45
2019-03-27T17:59:30.241Z,98215.80
2019-03-27T18:04:24.900Z,98213.97
2019-03-27T18:09:19.508Z,98218.19
2019-03-27T18:14:14.094Z,98219.17
2019-03-27T18:19:08.754Z,98213.29
2019-03-27T18:24:03.379Z,98224.83
2019-03-27T18:28:58.000Z,98225.35
2019-03-27T18:33:52.617Z,98226.42
2019-03-27T18:38:47.227Z,98244.43
2019-03-27T18:43:41.835Z,98237.02
2019-03-27T18:48:36.429Z,98236.37
2019-03-27T18:53:31.062Z,98252.56
2019-03-27T18:58:25.658Z,98253.27
2019-03-27T19:03:20.405Z,98258.31
2019-03-27T19:08:15.153Z,98253.73
2019-03-27T19:13:09.824Z,98262.91
2019-03-27T19:18:04.644Z,98258.81
2019-03-27T19:22:59.317Z,98268.02
2019-03-27T19:27:53.962Z,98272.49
2019-03-27T19:32:48.640Z,98275.42
2019-03-27T19:37:43.375Z,98270.96
2019-03-27T19:42:38.024Z,98280.77
2019-03-27T19:47:33.629Z,98279.77
2019-03-27T19:52:28.347Z,98292.84
2019-03-27T19:57:23.023Z,98288.30
2019-03-27T20:02:17.676Z,98296.45
2019-03-27T20:07:12.359Z,98296.79
2019-03-27T20:12:07.038Z,98298.89
2019-03-27T20:17:01.748Z,98302.01
2019-03-27T20:21:56.464Z,98296.59
2019-03-27T20:26:51.060Z,98300.70
2019-03-27T20:31:45.732Z,98287.97
2019-03-27T20:36:40.409Z,98291.02
2019-03-27T20:41:35.095Z,98282.66
2019-03-27T20:46:29.765Z,98288.56
2019-03-27T20:51:24.407Z,98290.86
2019-03-27T20:56:19.036Z,98292.17
2019-03-27T21:01:13.818Z,98283.22
2019-03-27T21:06:08.489Z,98285.67
2019-03-27T21:11:03.458Z,98286.36
2019-03-27T21:15:58.051Z,98292.53
2019-03-27T21:20:52.708Z,98285.87
2019-03-27T21:25:47.306Z,98286.70
2019-03-27T21:30:41.898Z,98281.14
2019-03-27T21:35:36.491Z,98285.05
2019-03-27T21:40:31.079Z,98290.91
2019-03-27T21:45:25.673Z,98292.08
2019-03-27T21:50:20.280Z,98287.66
2019-03-27T21:55:22.549Z,98293.22
2019-03-27T22:00:12.188Z,98307.05
2019-03-27T22:05:08.490Z,98301.52
2019-03-27T22:10:03.583Z,98307.84
2019-03-27T22:14:58.171Z,98308.19
2019-03-27T22:19:52.819Z,98312.41
2019-03-27T22:24:47.511Z,98311.12
2019-03-27T22:29:42.112Z,98313.39
2019-03-27T22:34:36.729Z,98315.34
2019-03-27T22:39:31.299Z,98313.21
2019-03-27T22:44:25.901Z,98315.31
2019-03-27T22:49:20.493Z,98323.80
2019-03-27T22:54:15.162Z,98317.61
2019-03-27T22:59:09.743Z,98318.91
2019-03-27T23:04:04.359Z,98316.31
2019-03-27T23:08:58.960Z,98310.47
2019-03-27T23:13:53.571Z,98319.89
2019-03-27T23:18:53.024Z,98316.63
2019-03-27T23:23:52.086Z,98317.77
2019-03-27T23:28:47.184Z,98316.63
2019-03-27T23:33:41.852Z,98317.57
2019-03-27T23:38:36.594Z,98312.97
2019-03-27T23:43:32.318Z,98310.49
2019-03-27T23:48:26.923Z,98307.38
2019-03-27T23:53:21.926Z,98300.50
2019-03-27T23:58:16.499Z,98301.37
